Time;durP1;ratioP1;P1;durP2;ratioP2;P2;SDS_P1;SDS_P2;PMS_P1;PMS_P2;Temp;Humidity;BMP_temperature;BMP_pressure;BME280_temperature;BME280_humidity;BME280_pressure;Samples;Min_cycle;Max_cycle;Signal;HPM_P1;HPM_P2
2022/08/27 00:01:07;;;;;;;1.10;0.30;;;23.30;70.80;;;;;;5057043;28;20057;-77
2022/08/27 00:03:33;;;;;;;1.25;0.40;;;23.40;71.50;;;;;;5057130;28;20021;-77
2022/08/27 00:05:59;;;;;;;1.05;0.40;;;23.40;71.50;;;;;;5056599;28;20454;-77
2022/08/27 00:08:24;;;;;;;1.77;0.50;;;23.50;71.50;;;;;;5057039;28;20025;-77
2022/08/27 00:10:50;;;;;;;1.63;0.38;;;23.50;71.30;;;;;;5057009;28;20025;-77
2022/08/27 00:13:16;;;;;;;1.75;0.60;;;23.50;71.50;;;;;;5056569;28;20024;-77
2022/08/27 00:15:41;;;;;;;3.53;0.80;;;23.40;70.00;;;;;;5056503;28;20485;-76
2022/08/27 00:18:07;;;;;;;2.42;0.38;;;23.20;70.20;;;;;;5056845;28;20021;-76
2022/08/27 00:20:33;;;;;;;2.55;0.50;;;23.00;70.20;;;;;;5056746;28;20041;-76
2022/08/27 00:22:59;;;;;;;1.33;0.52;;;22.90;70.30;;;;;;5056434;28;20473;-77
2022/08/27 00:25:26;;;;;;;3.28;0.80;;;22.70;70.80;;;;;;5056376;28;20063;-76
2022/08/27 00:27:52;;;;;;;3.08;0.93;;;22.60;70.70;;;;;;5056063;28;20036;-76
2022/08/27 00:30:21;;;;;;;2.15;0.50;;;22.30;71.30;;;;;;5056445;28;20025;-76
2022/08/27 00:32:47;;;;;;;1.83;0.50;;;22.20;72.30;;;;;;5056596;28;20029;-76
2022/08/27 00:35:14;;;;;;;2.63;0.40;;;22.20;73.10;;;;;;5056256;28;20365;-76
2022/08/27 00:37:41;;;;;;;2.28;0.50;;;22.30;73.20;;;;;;5056209;28;20111;-76
2022/08/27 00:40:09;;;;;;;2.10;0.50;;;22.30;73.30;;;;;;5056167;28;20098;-76
2022/08/27 00:42:35;;;;;;;3.50;0.40;;;22.30;73.20;;;;;;5055845;28;20021;-76
2022/08/27 00:45:02;;;;;;;4.63;0.68;;;22.40;73.30;;;;;;5056241;28;20554;-76
2022/08/27 00:47:30;;;;;;;2.67;0.43;;;22.50;72.70;;;;;;5056081;28;20057;-76
2022/08/27 00:50:07;;;;;;;1.48;0.28;;;22.50;73.60;;;;;;5056328;28;20437;-76
2022/08/27 00:52:40;;;;;;;1.40;0.40;;;22.60;73.80;;;;;;5055132;28;20449;-76
2022/08/27 00:55:12;;;;;;;1.13;0.30;;;22.70;73.00;;;;;;5055998;28;20021;-76
2022/08/27 00:57:39;;;;;;;1.20;0.30;;;22.80;73.60;;;;;;5056218;28;20025;-76
2022/08/27 01:00:08;;;;;;;1.95;0.52;;;22.90;73.20;;;;;;5055949;28;20270;-76
2022/08/27 01:02:34;;;;;;;3.85;0.40;;;22.90;73.20;;;;;;5055774;28;20032;-76
2022/08/27 01:05:06;;;;;;;2.35;0.55;;;22.90;72.30;;;;;;5055549;28;20029;-77
2022/08/27 01:07:33;;;;;;;;;;;22.90;72.40;;;;;;5056328;28;20047;-76
2022/08/27 01:10:01;;;;;;;1.35;0.30;;;22.90;73.10;;;;;;5055664;28;19915;-76
2022/08/27 01:12:30;;;;;;;2.55;0.60;;;23.00;72.90;;;;;;5055551;28;20476;-76
2022/08/27 01:14:56;;;;;;;1.38;0.65;;;23.00;71.60;;;;;;5055647;28;20409;-76
2022/08/27 01:17:23;;;;;;;3.63;0.70;;;23.00;72.40;;;;;;5055676;28;20025;-76
2022/08/27 01:19:51;;;;;;;1.77;0.50;;;23.00;71.80;;;;;;5055132;28;20087;-76
2022/08/27 01:22:27;;;;;;;1.67;0.30;;;22.90;71.60;;;;;;5055427;28;20468;-76
2022/08/27 01:24:55;;;;;;;1.25;0.47;;;22.90;72.70;;;;;;5055252;28;20049;-77
2022/08/27 01:27:25;;;;;;;1.77;0.57;;;23.00;72.80;;;;;;5055265;28;20032;-76
2022/08/27 01:29:51;;;;;;;4.03;0.52;;;22.90;70.50;;;;;;5055425;28;20029;-76
2022/08/27 01:32:23;;;;;;;1.88;0.50;;;22.70;70.60;;;;;;5055144;28;20021;-76
2022/08/27 01:34:49;;;;;;;1.90;0.70;;;22.50;70.50;;;;;;5054995;28;20024;-77
2022/08/27 01:37:17;;;;;;;1.65;0.40;;;22.40;71.40;;;;;;5055217;28;20060;-76
2022/08/27 01:39:43;;;;;;;1.30;0.40;;;22.40;72.20;;;;;;5055341;28;20021;-76
2022/08/27 01:42:16;;;;;;;1.55;0.40;;;22.50;73.00;;;;;;5054967;28;20499;-76
2022/08/27 01:44:48;;;;;;;1.58;0.50;;;22.60;73.30;;;;;;5054857;28;20507;-76
2022/08/27 01:47:15;;;;;;;2.28;0.30;;;22.60;72.40;;;;;;5055237;28;20440;-77
2022/08/27 01:49:41;;;;;;;1.90;0.50;;;22.70;72.60;;;;;;5054889;28;20060;-76
2022/08/27 01:52:06;;;;;;;1.92;0.70;;;22.70;71.20;;;;;;5055030;28;20487;-76
2022/08/27 01:54:32;;;;;;;1.90;0.68;;;22.70;72.60;;;;;;5054880;28;20024;-76
2022/08/27 01:56:58;;;;;;;1.70;0.50;;;22.70;72.00;;;;;;5055062;28;20028;-76
2022/08/27 01:59:24;;;;;;;1.55;0.38;;;22.70;72.00;;;;;;5054683;28;20108;-76
2022/08/27 02:01:50;;;;;;;1.42;0.50;;;22.70;72.60;;;;;;5054695;28;20104;-76
2022/08/27 02:04:16;;;;;;;1.48;0.47;;;22.70;71.20;;;;;;5054594;28;20025;-76
2022/08/27 02:06:42;;;;;;;2.05;0.40;;;22.60;72.00;;;;;;5054485;28;20104;-76
2022/08/27 02:09:07;;;;;;;1.40;0.32;;;22.60;72.70;;;;;;5054699;28;20041;-76
2022/08/27 02:11:33;;;;;;;1.23;0.40;;;22.60;72.20;;;;;;5054683;28;20554;-76
2022/08/27 02:13:58;;;;;;;1.58;0.40;;;22.70;73.00;;;;;;5054121;28;20051;-76
2022/08/27 02:16:24;;;;;;;2.65;0.45;;;22.70;72.20;;;;;;5054341;28;20055;-76
2022/08/27 02:18:53;;;;;;;2.25;0.60;;;22.70;71.50;;;;;;5054540;28;20021;-76
2022/08/27 02:21:19;;;;;;;1.75;0.63;;;22.60;70.90;;;;;;5054373;28;20036;-76
2022/08/27 02:23:44;;;;;;;1.95;0.55;;;22.50;71.30;;;;;;5054271;28;20025;-76
2022/08/27 02:26:10;;;;;;;2.47;0.60;;;22.50;72.10;;;;;;5053734;28;20053;-76
2022/08/27 02:28:36;;;;;;;2.55;0.70;;;22.50;71.80;;;;;;5054117;28;20048;-76
2022/08/27 02:31:02;;;;;;;4.03;0.75;;;22.50;71.80;;;;;;5054075;28;20025;-77
2022/08/27 02:33:27;;;;;;;1.83;0.57;;;22.40;70.90;;;;;;5054031;28;20385;-76
2022/08/27 02:35:53;;;;;;;1.48;0.32;;;22.30;72.20;;;;;;5053894;28;20025;-76
2022/08/27 02:38:19;;;;;;;1.50;0.40;;;22.40;72.90;;;;;;5053909;28;20040;-76
2022/08/27 02:40:45;;;;;;;1.23;0.60;;;22.40;73.40;;;;;;5053893;28;20483;-76
2022/08/27 02:43:11;;;;;;;2.40;0.80;;;22.50;73.50;;;;;;5053741;28;20032;-76
2022/08/27 02:45:36;;;;;;;2.33;0.60;;;22.50;71.70;;;;;;5053997;28;20029;-76
2022/08/27 02:48:04;;;;;;;2.13;0.55;;;22.50;72.40;;;;;;5053996;28;20387;-76
2022/08/27 02:50:29;;;;;;;1.92;0.60;;;22.40;71.40;;;;;;5053264;28;20079;-76
2022/08/27 02:52:55;;;;;;;1.40;0.52;;;22.40;71.70;;;;;;5053817;28;20029;-76
2022/08/27 02:55:21;;;;;;;1.83;0.65;;;22.30;72.60;;;;;;5053764;28;20498;-76
2022/08/27 02:57:47;;;;;;;2.70;0.60;;;22.30;72.10;;;;;;5053280;28;20071;-76
2022/08/27 03:00:17;;;;;;;1.33;0.50;;;22.30;71.40;;;;;;5053598;28;20025;-76
2022/08/27 03:02:43;;;;;;;1.83;0.40;;;22.30;72.60;;;;;;5053687;28;20021;-76
2022/08/27 03:05:11;;;;;;;2.05;0.50;;;22.30;72.80;;;;;;5053679;28;20048;-76
2022/08/27 03:07:37;;;;;;;2.55;0.50;;;22.40;73.20;;;;;;5053542;28;20056;-76
2022/08/27 03:10:04;;;;;;;1.60;0.57;;;22.40;72.70;;;;;;5053514;28;20049;-76
2022/08/27 03:12:30;;;;;;;1.17;0.43;;;22.30;71.80;;;;;;5053276;28;20032;-76
2022/08/27 03:14:56;;;;;;;1.17;0.60;;;22.30;72.20;;;;;;5053579;28;20111;-76
2022/08/27 03:20:07;;;;;;;2.88;0.80;;;22.20;71.70;;;;;;5053112;28;20036;-76
2022/08/27 03:22:33;;;;;;;2.13;0.80;;;22.10;71.30;;;;;;5053387;28;20025;-76
2022/08/27 03:25:01;;;;;;;1.65;0.52;;;22.00;72.10;;;;;;5052854;28;20462;-76
2022/08/27 03:27:27;;;;;;;1.85;0.80;;;22.10;72.20;;;;;;5053250;28;20063;-76
2022/08/27 03:29:53;;;;;;;2.25;0.50;;;22.00;71.10;;;;;;5053411;28;20045;-76
2022/08/27 03:32:18;;;;;;;3.13;0.50;;;21.90;72.80;;;;;;5053272;28;20468;-76
2022/08/27 03:34:44;;;;;;;2.30;0.70;;;22.00;73.10;;;;;;5053346;28;20561;-76
2022/08/27 03:37:10;;;;;;;2.33;0.63;;;22.10;72.00;;;;;;5052865;28;20024;-76
2022/08/27 03:39:35;;;;;;;3.35;0.95;;;22.00;72.10;;;;;;5053231;28;20021;-76
2022/08/27 03:42:01;;;;;;;1.50;0.50;;;22.00;72.20;;;;;;5052935;28;20021;-76
2022/08/27 03:44:27;;;;;;;3.00;0.70;;;22.10;73.10;;;;;;5053228;28;20044;-76
2022/08/27 03:46:53;;;;;;;2.45;0.80;;;22.10;72.90;;;;;;5053135;28;20032;-76
2022/08/27 03:49:20;;;;;;;1.75;0.70;;;22.10;72.40;;;;;;5053060;28;20472;-76
2022/08/27 03:51:46;;;;;;;1.27;0.63;;;22.10;72.00;;;;;;5052999;28;20040;-76
2022/08/27 03:54:12;;;;;;;1.70;0.52;;;22.10;72.20;;;;;;5053176;28;20025;-76
2022/08/27 03:56:39;;;;;;;3.95;0.57;;;22.20;73.10;;;;;;5053939;28;20096;-76
2022/08/27 03:59:05;;;;;;;1.88;0.60;;;22.20;71.60;;;;;;5052827;28;20509;-76
2022/08/27 04:01:31;;;;;;;1.63;0.50;;;22.20;71.60;;;;;;5052924;28;20053;-76
2022/08/27 04:03:56;;;;;;;5.07;0.95;;;22.20;72.70;;;;;;5052773;28;20431;-76
2022/08/27 04:06:22;;;;;;;2.35;0.73;;;22.10;70.70;;;;;;5052747;28;20025;-76
2022/08/27 04:08:47;;;;;;;1.92;0.80;;;22.00;71.70;;;;;;5053343;28;20139;-76
2022/08/27 04:11:13;;;;;;;1.35;0.47;;;22.00;72.70;;;;;;5052728;28;20056;-76
2022/08/27 04:13:39;;;;;;;2.78;0.60;;;22.10;73.20;;;;;;5052911;28;20400;-77
2022/08/27 04:16:06;;;;;;;2.10;0.88;;;22.20;72.90;;;;;;5052979;28;20035;-76
2022/08/27 04:18:32;;;;;;;1.85;0.55;;;22.20;72.90;;;;;;5052699;28;20035;-76
2022/08/27 04:21:05;;;;;;;2.05;0.65;;;22.30;73.30;;;;;;5052770;28;20025;-76
2022/08/27 04:23:31;;;;;;;1.98;0.80;;;22.30;72.80;;;;;;5053016;28;20030;-77
2022/08/27 04:25:56;;;;;;;2.05;0.55;;;22.30;72.10;;;;;;5052311;28;20071;-77
2022/08/27 04:28:23;;;;;;;2.00;0.70;;;22.30;72.80;;;;;;5055741;28;20032;-77
2022/08/27 04:30:48;;;;;;;1.48;0.60;;;22.40;72.90;;;;;;5056699;28;20415;-77
2022/08/27 04:33:14;;;;;;;1.38;0.50;;;22.40;72.80;;;;;;5056160;28;20051;-77
2022/08/27 04:35:40;;;;;;;5.22;1.17;;;22.40;72.60;;;;;;5056432;28;20033;-77
2022/08/27 04:38:06;;;;;;;4.22;0.98;;;22.40;72.20;;;;;;5056554;28;20021;-77
2022/08/27 04:43:16;;;;;;;2.42;0.93;;;22.30;72.30;;;;;;5056123;28;20079;-77
2022/08/27 04:45:43;;;;;;;2.17;0.75;;;22.30;72.10;;;;;;5056337;28;20037;-77
2022/08/27 04:48:14;;;;;;;3.20;0.70;;;22.30;72.50;;;;;;5056360;28;20112;-77
2022/08/27 04:50:45;;;;;;;1.85;0.70;;;22.40;72.20;;;;;;5056318;28;20112;-77
2022/08/27 04:53:13;;;;;;;1.63;0.57;;;22.40;72.50;;;;;;5056348;28;20025;-77
2022/08/27 04:55:47;;;;;;;1.55;0.50;;;22.40;72.90;;;;;;5056051;28;20100;-77
2022/08/27 04:58:13;;;;;;;2.00;0.77;;;22.50;72.90;;;;;;5055948;28;20025;-77
2022/08/27 05:00:45;;;;;;;1.65;0.55;;;22.50;72.40;;;;;;5056141;28;20021;-77
2022/08/27 05:03:11;;;;;;;1.48;0.68;;;22.50;72.60;;;;;;5055779;28;20029;-77
2022/08/27 05:05:37;;;;;;;2.03;0.75;;;22.60;72.30;;;;;;5055951;28;20399;-77
2022/08/27 05:08:05;;;;;;;2.75;0.75;;;22.50;71.70;;;;;;5055766;28;20104;-77
2022/08/27 05:10:37;;;;;;;3.17;0.63;;;22.50;72.40;;;;;;5055788;28;20071;-77
2022/08/27 05:13:02;;;;;;;1.50;0.75;;;22.50;72.30;;;;;;5055602;28;20024;-77
2022/08/27 05:15:30;;;;;;;1.88;0.65;;;22.60;72.30;;;;;;5055878;28;20025;-77
2022/08/27 05:17:59;;;;;;;4.00;0.70;;;22.60;72.20;;;;;;5055523;28;20096;-77
2022/08/27 05:20:29;;;;;;;2.08;0.73;;;22.60;71.90;;;;;;5055765;28;20025;-77
2022/08/27 05:22:56;;;;;;;2.20;0.63;;;22.50;71.80;;;;;;5055556;28;20078;-77
2022/08/27 05:25:23;;;;;;;1.42;0.50;;;22.50;72.00;;;;;;5055254;28;20053;-77
2022/08/27 05:27:49;;;;;;;1.70;0.80;;;22.50;72.10;;;;;;5054885;28;20025;-77
2022/08/27 05:30:14;;;;;;;2.80;0.98;;;22.60;72.20;;;;;;5055224;28;20028;-77
2022/08/27 05:32:40;;;;;;;1.30;0.63;;;22.60;71.90;;;;;;5055436;28;20029;-77
2022/08/27 05:35:08;;;;;;;1.40;0.60;;;22.60;71.90;;;;;;5055024;28;20480;-77
2022/08/27 05:37:33;;;;;;;1.77;0.80;;;22.70;72.10;;;;;;5054886;28;20063;-77
2022/08/27 05:40:00;;;;;;;2.10;0.65;;;22.70;72.00;;;;;;5054497;28;20029;-77
2022/08/27 05:42:27;;;;;;;1.50;0.50;;;22.70;71.80;;;;;;5055250;28;20032;-77
2022/08/27 05:44:53;;;;;;;2.20;0.80;;;22.70;71.70;;;;;;5055229;28;20072;-77
2022/08/27 05:47:19;;;;;;;2.90;1.13;;;22.70;71.40;;;;;;5054981;28;20063;-76
2022/08/27 05:49:44;;;;;;;2.38;0.70;;;22.70;71.70;;;;;;5054912;28;20074;-77
2022/08/27 05:52:11;;;;;;;1.30;0.68;;;22.70;71.10;;;;;;5054934;28;20033;-77
2022/08/27 05:54:38;;;;;;;1.95;0.95;;;22.70;71.20;;;;;;5055048;28;20032;-77
2022/08/27 05:57:04;;;;;;;1.95;0.77;;;22.70;71.00;;;;;;5055067;28;20036;-77
2022/08/27 06:02:14;;;;;;;2.08;0.90;;;22.60;70.80;;;;;;5054577;28;20028;-77
2022/08/27 06:04:40;;;;;;;1.98;0.85;;;22.60;71.20;;;;;;5054717;28;20025;-77
2022/08/27 06:07:08;;;;;;;1.50;0.88;;;22.70;71.10;;;;;;5054901;28;20457;-77
2022/08/27 06:09:33;;;;;;;2.90;0.98;;;22.70;70.70;;;;;;5054645;28;20033;-77
2022/08/27 06:12:00;;;;;;;2.35;0.63;;;22.60;70.40;;;;;;5054666;28;20029;-77
2022/08/27 06:14:26;;;;;;;2.13;0.95;;;22.60;71.10;;;;;;5054740;28;20059;-77
2022/08/27 06:16:51;;;;;;;1.98;1.13;;;22.60;70.90;;;;;;5054459;28;20048;-77
2022/08/27 06:19:17;;;;;;;2.83;1.00;;;22.70;70.70;;;;;;5054603;28;20486;-77
2022/08/27 06:21:43;;;;;;;2.67;0.90;;;22.70;70.60;;;;;;5054233;28;20028;-77
2022/08/27 06:24:13;;;;;;;2.03;1.00;;;22.70;69.90;;;;;;5053966;28;20037;-77
2022/08/27 06:26:41;;;;;;;3.88;1.10;;;22.60;70.00;;;;;;5054548;28;20049;-77
2022/08/27 06:29:08;;;;;;;3.13;0.70;;;22.40;68.30;;;;;;5054379;28;20025;-77
2022/08/27 06:31:34;;;;;;;3.60;1.23;;;22.20;69.50;;;;;;5054219;28;20143;-77
2022/08/27 06:34:02;;;;;;;5.10;1.33;;;22.10;69.90;;;;;;5054295;28;20063;-77
2022/08/27 06:36:29;;;;;;;8.93;1.10;;;22.10;69.80;;;;;;5053912;28;20025;-77
2022/08/27 06:38:56;;;;;;;3.67;0.93;;;21.90;70.10;;;;;;5053916;28;20408;-77
2022/08/27 06:41:28;;;;;;;3.42;1.17;;;21.70;70.50;;;;;;5054153;28;20028;-77
2022/08/27 06:43:55;;;;;;;3.45;1.10;;;21.70;70.60;;;;;;5054032;28;20051;-77
2022/08/27 06:46:23;;;;;;;5.38;1.27;;;21.70;70.00;;;;;;5053484;28;20037;-77
2022/08/27 06:48:54;;;;;;;1.90;1.00;;;21.50;70.70;;;;;;5054101;28;20029;-77
2022/08/27 06:51:24;;;;;;;3.28;0.90;;;21.50;71.60;;;;;;5053177;28;20025;-77
2022/08/27 06:53:51;;;;;;;2.05;0.90;;;21.60;71.30;;;;;;5053715;28;20096;-77
2022/08/27 06:56:17;;;;;;;2.88;1.00;;;21.50;70.90;;;;;;5053988;28;20036;-77
2022/08/27 06:58:43;;;;;;;4.10;1.10;;;21.40;71.10;;;;;;5053534;28;20074;-77
2022/08/27 07:01:25;;;;;;;2.80;0.70;;;21.40;71.70;;;;;;5053588;28;20040;-77
2022/08/27 07:03:57;;;;;;;2.00;0.73;;;21.60;72.70;;;;;;5053845;28;20033;-77
2022/08/27 07:06:25;;;;;;;2.20;0.90;;;21.80;71.00;;;;;;5053618;28;20037;-77
2022/08/27 07:08:50;;;;;;;2.10;0.80;;;21.70;70.50;;;;;;5053489;28;20037;-77
2022/08/27 07:11:16;;;;;;;5.18;0.80;;;21.80;71.80;;;;;;5053756;28;20025;-77
2022/08/27 07:13:44;;;;;;;5.55;0.90;;;21.70;70.00;;;;;;5053443;28;20025;-77
2022/08/27 07:16:12;;;;;;;5.20;1.10;;;21.70;71.00;;;;;;5053380;28;20029;-77
2022/08/27 07:18:39;;;;;;;4.50;0.80;;;21.80;70.90;;;;;;5053442;28;20028;-77
2022/08/27 07:21:05;;;;;;;6.70;1.10;;;21.80;70.40;;;;;;5053031;28;20025;-77
2022/08/27 07:23:32;;;;;;;2.28;0.70;;;21.80;69.90;;;;;;5053348;28;20028;-77
2022/08/27 07:25:59;;;;;;;7.00;0.77;;;21.70;70.20;;;;;;5053012;28;20045;-77
2022/08/27 07:28:24;;;;;;;1.75;0.60;;;21.70;69.80;;;;;;5053371;28;20025;-77
2022/08/27 07:30:51;;;;;;;3.05;0.68;;;21.60;70.80;;;;;;5053395;28;20035;-77
2022/08/27 07:33:16;;;;;;;4.03;0.50;;;21.80;70.70;;;;;;5053231;28;20021;-77
2022/08/27 07:35:43;;;;;;;3.92;0.80;;;22.00;70.50;;;;;;5053327;28;20078;-77
2022/08/27 07:38:10;;;;;;;2.17;0.60;;;22.20;69.60;;;;;;5052963;28;20028;-77
2022/08/27 07:40:36;;;;;;;2.72;0.60;;;22.20;69.20;;;;;;5053035;28;20111;-77
2022/08/27 07:45:51;;;;;;;2.80;0.63;;;22.40;69.90;;;;;;5052922;28;20080;-77
2022/08/27 07:48:17;;;;;;;2.78;0.43;;;22.50;68.90;;;;;;5053159;28;20014;-77
2022/08/27 07:50:43;;;;;;;2.78;0.40;;;22.50;67.40;;;;;;5052610;28;20025;-77
2022/08/27 07:53:09;;;;;;;2.60;0.65;;;22.40;67.70;;;;;;5053084;28;20037;-78
2022/08/27 07:55:36;;;;;;;4.65;0.60;;;22.40;68.30;;;;;;5052622;28;20440;-78
2022/08/27 07:58:03;;;;;;;3.88;0.70;;;22.40;68.10;;;;;;5053048;28;20025;-75
2022/08/27 08:00:28;;;;;;;3.45;0.55;;;22.30;68.10;;;;;;5052908;28;20033;-75
2022/08/27 08:02:54;;;;;;;5.40;1.52;;;22.30;68.90;;;;;;5055163;28;20027;-76
2022/08/27 08:05:20;;;;;;;2.40;0.50;;;22.40;68.90;;;;;;5056756;28;20037;-75
2022/08/27 08:07:45;;;;;;;5.47;0.40;;;22.60;68.70;;;;;;5056538;28;20036;-75
2022/08/27 08:10:11;;;;;;;2.45;0.40;;;22.60;67.60;;;;;;5057006;28;20029;-76
2022/08/27 08:13:04;;;;;;;3.33;0.50;;;22.70;67.10;;;;;;5056901;28;20074;-84
2022/08/27 08:15:30;;;;;;;1.83;0.40;;;22.90;67.40;;;;;;5057072;28;20104;-76
2022/08/27 08:17:55;;;;;;;1.50;0.30;;;22.90;65.80;;;;;;5056387;28;20033;-76
2022/08/27 08:20:21;;;;;;;2.50;0.50;;;23.00;67.20;;;;;;5056552;28;20029;-76
2022/08/27 08:22:47;;;;;;;2.90;0.60;;;23.10;66.70;;;;;;5056469;28;20055;-76
2022/08/27 08:25:14;;;;;;;1.67;0.50;;;23.40;65.00;;;;;;5056235;28;20137;-76
2022/08/27 08:27:40;;;;;;;2.38;0.43;;;23.60;64.30;;;;;;5056400;28;20360;-76
2022/08/27 08:30:07;;;;;;;2.17;0.40;;;23.60;63.40;;;;;;5056423;28;20103;-76
2022/08/27 08:32:33;;;;;;;1.85;0.40;;;23.50;62.80;;;;;;5056358;28;20480;-76
2022/08/27 08:34:59;;;;;;;1.77;0.52;;;23.50;63.40;;;;;;5056250;28;20079;-76
2022/08/27 08:37:24;;;;;;;3.83;0.65;;;23.40;63.20;;;;;;5056164;28;20017;-76
2022/08/27 08:39:50;;;;;;;2.83;0.30;;;23.00;62.90;;;;;;5056175;28;20087;-76
2022/08/27 08:42:31;;;;;;;1.52;0.40;;;22.90;63.80;;;;;;5055921;28;20060;-76
2022/08/27 08:44:59;;;;;;;2.13;0.35;;;22.90;64.40;;;;;;5056255;28;20087;-76
2022/08/27 08:47:29;;;;;;;2.40;0.47;;;22.80;64.90;;;;;;5056085;28;20472;-76
2022/08/27 08:50:18;;;;;;;2.30;0.25;;;22.90;64.60;;;;;;5055791;28;20037;-75
2022/08/27 08:53:23;;;;;;;2.05;0.30;;;23.20;63.10;;;;;;5056317;28;20048;-76
2022/08/27 08:55:57;;;;;;;2.15;0.30;;;23.50;63.10;;;;;;5055627;28;20032;-76
2022/08/27 08:58:44;;;;;;;3.92;0.40;;;23.70;63.40;;;;;;5056051;28;20076;-76
2022/08/27 09:01:14;;;;;;;2.88;0.55;;;23.80;62.60;;;;;;5055830;28;20032;-76
2022/08/27 09:03:42;;;;;;;4.40;0.60;;;23.80;62.20;;;;;;5055760;28;20043;-76
2022/08/27 09:06:25;;;;;;;4.82;0.73;;;23.70;62.70;;;;;;5055367;28;20389;-76
2022/08/27 09:08:51;;;;;;;5.78;0.52;;;23.70;62.30;;;;;;5056020;28;20146;-76
2022/08/27 09:11:22;;;;;;;4.63;0.73;;;23.60;62.60;;;;;;5055492;28;20049;-77
2022/08/27 09:13:57;;;;;;;3.60;0.40;;;23.50;61.60;;;;;;5054801;28;20108;-76
2022/08/27 09:16:23;;;;;;;3.25;0.40;;;23.30;62.60;;;;;;5055559;28;20029;-76
2022/08/27 09:18:49;;;;;;;6.38;0.95;;;23.40;63.40;;;;;;5055392;28;20040;-78
2022/08/27 09:21:31;;;;;;;3.40;0.40;;;23.40;62.90;;;;;;5055690;28;20051;-75
2022/08/27 09:24:15;;;;;;;1.15;0.50;;;23.40;62.50;;;;;;5055498;28;20036;-76
2022/08/27 09:26:42;;;;;;;2.78;0.45;;;23.40;63.00;;;;;;5055420;28;20033;-76
2022/08/27 09:29:20;;;;;;;3.25;0.30;;;23.30;62.50;;;;;;5055304;28;20549;-76
2022/08/27 09:31:57;;;;;;;2.15;0.43;;;23.40;62.90;;;;;;5055102;28;20427;-76
2022/08/27 09:34:25;;;;;;;2.58;0.35;;;23.50;62.50;;;;;;5055253;28;20413;-76
2022/08/27 09:36:58;;;;;;;2.80;0.30;;;23.50;62.70;;;;;;5053570;28;20025;-76
2022/08/27 09:39:33;;;;;;;2.53;0.47;;;23.60;61.50;;;;;;5055503;28;20024;-76
2022/08/27 09:42:00;;;;;;;3.40;0.47;;;23.70;62.10;;;;;;5054916;28;20029;-76
2022/08/27 09:44:25;;;;;;;3.55;0.50;;;23.80;61.40;;;;;;5054969;28;20083;-76
2022/08/27 09:46:58;;;;;;;3.08;0.45;;;24.00;61.40;;;;;;5054599;28;20041;-76
2022/08/27 09:49:24;;;;;;;2.95;0.45;;;24.00;60.70;;;;;;5054934;28;20040;-76
2022/08/27 09:51:50;;;;;;;1.30;0.30;;;24.00;60.30;;;;;;5054844;28;20060;-76
2022/08/27 09:54:35;;;;;;;2.25;0.40;;;23.80;60.50;;;;;;5054926;28;20021;-76
2022/08/27 09:57:01;;;;;;;5.28;0.68;;;23.60;62.10;;;;;;5054726;28;20033;-76
2022/08/27 09:59:36;;;;;;;3.17;0.40;;;23.60;62.00;;;;;;5055060;28;20071;-76
2022/08/27 10:02:07;;;;;;;2.40;0.30;;;23.70;62.50;;;;;;5054947;28;20029;-77
2022/08/27 10:04:37;;;;;;;1.83;0.50;;;23.80;62.70;;;;;;5054411;28;20025;-76
2022/08/27 10:07:24;;;;;;;1.90;0.30;;;23.60;62.40;;;;;;5054171;28;20466;-77
2022/08/27 10:09:59;;;;;;;2.63;0.30;;;23.60;62.40;;;;;;5054773;28;20025;-77
2022/08/27 10:12:57;;;;;;;2.42;0.52;;;23.70;62.60;;;;;;5054465;28;20106;-77
2022/08/27 10:15:27;;;;;;;3.53;0.45;;;23.60;62.30;;;;;;5050265;28;20044;-77
2022/08/27 10:18:01;;;;;;;4.47;0.40;;;23.60;62.60;;;;;;5054111;28;20032;-77
2022/08/27 10:20:52;;;;;;;5.75;0.88;;;23.50;63.10;;;;;;5054295;28;20055;-77
2022/08/27 10:23:41;;;;;;;3.05;0.40;;;23.50;63.00;;;;;;5054410;28;20112;-77
2022/08/27 10:26:27;;;;;;;3.38;0.63;;;23.50;63.80;;;;;;5053845;28;20088;-77
2022/08/27 10:28:55;;;;;;;1.30;0.30;;;23.40;64.10;;;;;;5054169;28;20025;-77
2022/08/27 10:31:57;;;;;;;3.65;0.47;;;23.50;64.00;;;;;;5054153;28;20029;-77
2022/08/27 10:34:48;;;;;;;2.47;0.43;;;23.60;64.00;;;;;;5054011;28;20021;-77
2022/08/27 10:37:41;;;;;;;2.08;0.45;;;23.60;63.50;;;;;;5054302;28;20028;-77
2022/08/27 10:40:25;;;;;;;1.80;0.50;;;23.70;63.10;;;;;;5053967;28;20032;-77
2022/08/27 10:43:19;;;;;;;2.75;0.55;;;23.70;62.80;;;;;;5053883;28;20484;-77
2022/08/27 10:46:36;;;;;;;2.85;0.80;;;23.70;63.60;;;;;;5054086;28;20421;-77
2022/08/27 10:49:26;;;;;;;3.22;0.70;;;23.80;62.70;;;;;;5053953;28;20056;-77
2022/08/27 10:52:21;;;;;;;3.55;0.50;;;23.90;61.80;;;;;;5053697;28;20384;-77
2022/08/27 10:55:05;;;;;;;2.85;0.40;;;23.80;61.00;;;;;;5053481;28;20027;-77
2022/08/27 10:57:49;;;;;;;1.80;0.30;;;23.60;61.50;;;;;;5053811;28;20028;-77
2022/08/27 11:00:20;;;;;;;2.35;0.30;;;23.50;61.30;;;;;;5053447;28;20027;-77
2022/08/27 11:02:55;;;;;;;2.70;0.70;;;23.40;61.60;;;;;;5053300;28;20461;-77
2022/08/27 11:05:30;;;;;;;1.55;0.40;;;23.40;62.20;;;;;;5053642;28;20041;-77
2022/08/27 11:08:00;;;;;;;3.08;0.50;;;23.50;61.90;;;;;;5053581;28;20021;-77
2022/08/27 11:10:31;;;;;;;2.28;0.40;;;23.50;62.20;;;;;;5053766;28;20024;-77
2022/08/27 11:13:06;;;;;;;2.72;0.57;;;23.50;62.30;;;;;;5053314;28;20028;-77
2022/08/27 11:15:37;;;;;;;3.30;0.30;;;23.60;62.50;;;;;;5053153;28;20436;-77
2022/08/27 11:18:14;;;;;;;4.28;0.55;;;23.60;62.10;;;;;;5053085;28;20024;-76
2022/08/27 11:20:50;;;;;;;2.28;0.38;;;23.70;61.20;;;;;;5053369;28;20101;-77
2022/08/27 11:23:43;;;;;;;1.50;0.30;;;23.60;61.50;;;;;;5053074;28;20063;-77
2022/08/27 11:26:09;;;;;;;2.45;0.30;;;23.50;61.60;;;;;;5052720;28;20516;-77
2022/08/27 11:28:44;;;;;;;4.53;1.08;;;23.70;61.20;;;;;;5052881;28;20036;-77
2022/08/27 11:31:13;;;;;;;4.10;0.50;;;23.60;60.90;;;;;;5052609;28;20518;-77
2022/08/27 11:33:46;;;;;;;1.92;0.40;;;23.60;61.50;;;;;;5053207;28;20075;-77
2022/08/27 11:36:37;;;;;;;1.77;0.35;;;23.90;62.30;;;;;;5053074;28;20029;-77
2022/08/27 11:39:23;;;;;;;1.98;0.30;;;24.40;60.60;;;;;;5050984;28;20025;-77
2022/08/27 11:42:01;;;;;;;3.42;0.35;;;24.80;59.70;;;;;;5053034;28;20025;-77
2022/08/27 11:44:28;;;;;;;2.53;0.30;;;25.00;58.90;;;;;;5053258;28;20029;-77
2022/08/27 11:47:14;;;;;;;1.55;0.38;;;25.00;59.00;;;;;;5053060;28;20025;-77
2022/08/27 11:49:47;;;;;;;1.30;0.30;;;24.90;59.50;;;;;;5052859;28;20103;-77
2022/08/27 11:52:22;;;;;;;2.30;0.60;;;24.90;60.00;;;;;;5052770;28;20040;-77
2022/08/27 11:55:10;;;;;;;4.15;0.82;;;25.00;60.30;;;;;;5052994;28;20029;-77
2022/08/27 11:57:36;;;;;;;4.10;0.40;;;25.00;59.70;;;;;;5048542;28;20053;-77
2022/08/27 12:00:29;;;;;;;2.65;0.70;;;24.90;60.00;;;;;;5052842;28;20380;-77
2022/08/27 12:03:01;;;;;;;3.80;0.80;;;24.80;59.50;;;;;;5052901;28;20021;-77
2022/08/27 12:05:46;;;;;;;3.60;0.60;;;24.50;60.40;;;;;;5052397;28;20025;-77
2022/08/27 12:08:35;;;;;;;1.48;0.50;;;24.40;61.00;;;;;;5053003;28;20029;-77
2022/08/27 12:11:40;;;;;;;2.00;0.38;;;24.50;61.40;;;;;;5052895;28;20286;-77
2022/08/27 12:14:19;;;;;;;2.85;0.45;;;24.50;60.90;;;;;;5052701;28;20039;-77
2022/08/27 12:16:53;;;;;;;2.95;0.75;;;24.40;61.10;;;;;;5052736;28;20025;-77
2022/08/27 12:19:49;;;;;;;3.58;0.55;;;24.40;61.30;;;;;;5052540;28;20041;-77
2022/08/27 12:22:15;;;;;;;1.92;0.40;;;24.40;61.80;;;;;;5052770;28;20031;-77
2022/08/27 12:24:54;;;;;;;3.15;0.60;;;24.30;61.20;;;;;;5052253;28;20045;-77
2022/08/27 12:27:27;;;;;;;3.03;0.40;;;24.20;61.90;;;;;;5052415;28;20033;-77
2022/08/27 12:30:20;;;;;;;4.22;0.60;;;24.30;61.20;;;;;;5052827;28;20017;-77
2022/08/27 12:32:50;;;;;;;2.72;0.40;;;24.20;61.20;;;;;;5049191;28;20112;-77
2022/08/27 12:35:40;;;;;;;3.50;0.57;;;24.10;61.10;;;;;;5052178;28;20108;-77
2022/08/27 12:38:36;;;;;;;3.13;0.63;;;24.00;60.70;;;;;;5052522;28;20465;-77
2022/08/27 12:41:07;;;;;;;3.00;0.50;;;24.00;60.70;;;;;;5052327;28;20025;-77
2022/08/27 12:43:34;;;;;;;1.05;0.30;;;23.90;61.30;;;;;;5052585;28;20032;-77
2022/08/27 12:46:03;;;;;;;3.38;1.27;;;23.90;61.70;;;;;;5052465;28;20041;-77
2022/08/27 12:48:44;;;;;;;2.05;0.47;;;24.10;61.70;;;;;;5052199;28;20021;-77
2022/08/27 12:51:19;;;;;;;1.58;0.30;;;24.10;60.80;;;;;;5055978;28;20028;-77
2022/08/27 12:54:07;;;;;;;1.85;0.50;;;24.10;61.40;;;;;;5056189;28;20021;-77
2022/08/27 12:57:05;;;;;;;1.90;0.30;;;24.10;61.30;;;;;;5055704;28;20017;-77
2022/08/27 13:00:06;;;;;;;2.78;0.40;;;24.30;62.10;;;;;;5055525;28;20025;-77
2022/08/27 13:02:40;;;;;;;2.50;0.40;;;24.30;61.40;;;;;;5055896;28;20150;-77
2022/08/27 13:05:08;;;;;;;2.20;0.50;;;24.40;60.80;;;;;;5055767;28;20037;-77
2022/08/27 13:07:41;;;;;;;2.55;0.52;;;24.40;60.70;;;;;;5055739;28;20018;-77
2022/08/27 13:10:24;;;;;;;3.22;0.50;;;24.50;61.00;;;;;;5055698;28;20412;-77
2022/08/27 13:13:04;;;;;;;2.55;0.40;;;24.50;60.90;;;;;;5055822;28;20075;-77
2022/08/27 13:15:32;;;;;;;2.60;0.30;;;24.60;61.20;;;;;;5055741;28;20025;-77
2022/08/27 13:17:59;;;;;;;5.28;0.50;;;24.60;60.90;;;;;;5055531;28;20056;-77